Terminal Aerodrome Forecast
Issued by NWS Pocatello, ID

Home | Current Version | Previous Version | Text Only | Print | Product List | Glossary On
Versions: 1 2 3 4 5 6 7 8 9 10 11 12 13 14 15
441
FTUS45 KPIH 282320
TAFIDA
TAF
KIDA 282320Z 2900/2924 02012KT P6SM BKN070
     FM290300 VRB05KT P6SM SCT035 BKN050
     FM291500 24007KT P6SM VCSH BKN050 OVC100
     FM292000 24011KT P6SM VCTS BKN050CB=

USA.gov is the U.S. government's official web portal to all federal, state and local government web resources and services.